createdAt,value
2022-10-06T00:00:07.205Z,101333.19
2022-10-06T00:02:36.251Z,101343.09
2022-10-06T00:05:04.978Z,101352.44
2022-10-06T00:07:32.953Z,101352.44
2022-10-06T00:10:00.912Z,101358.78
2022-10-06T00:12:30.277Z,101358.66
2022-10-06T00:14:58.240Z,101355.75
2022-10-06T00:17:27.040Z,101357.09
2022-10-06T00:19:54.910Z,101369.16
2022-10-06T00:22:22.805Z,101377.34
2022-10-06T00:24:50.703Z,101379.91
2022-10-06T00:27:18.755Z,101388.25
2022-10-06T00:29:48.016Z,101375.19
2022-10-06T00:32:15.888Z,101390.56
2022-10-06T00:34:44.146Z,101384.53
2022-10-06T00:37:12.013Z,101393.88
2022-10-06T00:39:39.926Z,101388.25
2022-10-06T00:42:20.905Z,101391.44
2022-10-06T00:44:51.444Z,101399.91
2022-10-06T00:47:20.006Z,101407.66
2022-10-06T00:49:48.146Z,101421.16
2022-10-06T00:52:18.506Z,101420.91
2022-10-06T00:54:46.527Z,101413.41
2022-10-06T00:57:14.513Z,101409.69
2022-10-06T00:59:42.461Z,101412.13
2022-10-06T01:02:16.866Z,101416.16
2022-10-06T01:04:48.060Z,101420.47
2022-10-06T01:07:17.933Z,101419.75
2022-10-06T01:09:46.214Z,101435.38
2022-10-06T01:12:14.589Z,101444.56
2022-10-06T01:14:42.994Z,101456.16
2022-10-06T01:17:15.686Z,101450.44
2022-10-06T01:19:49.618Z,101448.81
2022-10-06T01:22:19.040Z,101457.88
2022-10-06T01:24:50.733Z,101455.69
2022-10-06T01:27:19.321Z,101458.00
2022-10-06T01:29:47.278Z,101457.28
2022-10-06T01:32:16.018Z,101471.44
2022-10-06T01:34:43.949Z,101477.00
2022-10-06T01:37:11.953Z,101474.03
2022-10-06T01:39:39.842Z,101483.47
2022-10-06T01:42:09.229Z,101489.59
2022-10-06T01:44:37.826Z,101485.19
2022-10-06T01:47:07.191Z,101496.81
2022-10-06T01:49:35.465Z,101492.91
2022-10-06T01:52:04.802Z,101500.06
2022-10-06T01:54:33.090Z,101511.09
2022-10-06T01:57:01.004Z,101511.78
2022-10-06T01:59:30.351Z,101508.34
2022-10-06T02:01:58.435Z,101514.78
2022-10-06T02:04:26.480Z,101518.50
2022-10-06T02:06:55.584Z,101527.94
2022-10-06T02:09:23.633Z,101530.13
2022-10-06T02:11:51.752Z,101538.16
2022-10-06T02:14:19.766Z,101530.13
2022-10-06T02:16:49.059Z,101536.72
2022-10-06T02:19:17.258Z,101533.66
2022-10-06T02:21:45.143Z,101544.13
2022-10-06T02:24:13.130Z,101550.59
2022-10-06T02:26:41.025Z,101558.88
2022-10-06T02:29:08.954Z,101564.59
2022-10-06T02:31:36.913Z,101567.66
2022-10-06T02:34:06.271Z,101573.09
2022-10-06T02:36:34.182Z,101588.00
2022-10-06T02:39:02.126Z,101581.69
2022-10-06T02:41:30.138Z,101586.97
2022-10-06T02:43:58.016Z,101580.94
2022-10-06T02:46:26.367Z,101586.97
2022-10-06T02:48:54.803Z,101591.72
2022-10-06T02:51:24.440Z,101593.81
2022-10-06T02:53:52.894Z,101600.66
2022-10-06T02:56:22.265Z,101609.13
2022-10-06T02:58:51.122Z,101608.00
2022-10-06T03:01:21.275Z,101623.56
2022-10-06T03:03:49.454Z,101617.41
2022-10-06T03:06:25.194Z,101642.31
2022-10-06T03:08:56.162Z,101644.09
2022-10-06T03:11:26.298Z,101636.41
2022-10-06T03:13:54.399Z,101642.56
2022-10-06T03:16:24.135Z,101655.00
2022-10-06T03:18:54.525Z,101655.66
2022-10-06T03:21:24.543Z,101659.88
2022-10-06T03:23:54.647Z,101663.94
2022-10-06T03:26:24.665Z,101672.13
2022-10-06T03:28:53.134Z,101679.44
2022-10-06T03:31:21.438Z,101683.41
2022-10-06T03:33:49.549Z,101690.94
2022-10-06T03:36:19.868Z,101690.69
2022-10-06T03:38:48.051Z,101684.53
2022-10-06T03:41:19.225Z,101692.22
2022-10-06T03:43:48.556Z,101691.56
2022-10-06T03:46:19.849Z,101704.06
2022-10-06T03:48:48.445Z,101705.09
2022-10-06T03:51:17.622Z,101712.13
2022-10-06T03:53:46.321Z,101711.25
2022-10-06T03:56:15.558Z,101726.13
2022-10-06T03:58:46.671Z,101726.63
2022-10-06T04:01:16.835Z,101733.00
2022-10-06T04:03:45.037Z,101731.53
2022-10-06T04:06:14.627Z,101741.31
2022-10-06T04:08:43.404Z,101746.13
2022-10-06T04:11:13.233Z,101759.22
2022-10-06T04:13:42.093Z,101754.16
2022-10-06T04:16:16.639Z,101753.06
2022-10-06T04:18:45.381Z,101762.47
2022-10-06T04:21:13.860Z,101754.16
2022-10-06T04:23:41.875Z,101756.66
2022-10-06T04:26:13.517Z,101757.75
2022-10-06T04:28:44.154Z,101772.09
2022-10-06T04:31:16.396Z,101777.78
2022-10-06T04:33:45.948Z,101793.56
2022-10-06T04:36:16.806Z,101788.63
2022-10-06T04:38:44.968Z,101801.00
2022-10-06T04:41:14.691Z,101807.56
2022-10-06T04:43:42.871Z,101803.59
2022-10-06T04:46:37.511Z,101811.00
2022-10-06T04:49:00.825Z,101817.03
2022-10-06T04:51:29.766Z,101825.09
2022-10-06T04:53:57.695Z,101826.69
2022-10-06T04:56:27.592Z,101830.75
2022-10-06T04:58:56.578Z,101840.63
2022-10-06T05:01:25.493Z,101841.50
2022-10-06T05:03:55.932Z,101855.22
2022-10-06T05:06:26.558Z,101855.81
2022-10-06T05:08:55.758Z,101864.84
2022-10-06T05:11:25.955Z,101875.19
2022-10-06T05:13:57.131Z,101874.75
2022-10-06T05:16:27.415Z,101884.09
2022-10-06T05:18:55.674Z,101894.84
2022-10-06T05:21:26.364Z,101895.81
2022-10-06T05:23:54.397Z,101898.66
2022-10-06T05:26:23.603Z,101915.47
2022-10-06T05:28:51.932Z,101918.78
2022-10-06T05:31:21.588Z,101929.13
2022-10-06T05:33:50.093Z,101926.41
2022-10-06T05:36:20.217Z,101937.41
2022-10-06T05:38:49.623Z,101943.19
2022-10-06T05:41:19.089Z,101949.34
2022-10-06T05:43:47.294Z,101956.00
2022-10-06T05:46:20.395Z,101955.06
2022-10-06T05:48:49.368Z,101962.47
2022-10-06T05:51:19.141Z,101959.03
2022-10-06T05:53:48.605Z,101965.66
2022-10-06T05:56:19.357Z,101975.78
2022-10-06T05:58:48.703Z,101985.38
2022-10-06T06:01:18.926Z,101990.38
2022-10-06T06:03:49.343Z,101998.00
2022-10-06T06:06:19.373Z,102003.53
2022-10-06T06:08:48.082Z,102003.59
2022-10-06T06:11:17.401Z,102011.84
2022-10-06T06:13:45.496Z,102011.00
2022-10-06T06:16:15.221Z,102015.03
2022-10-06T06:18:43.281Z,102014.69
2022-10-06T06:21:11.813Z,102036.88
2022-10-06T06:23:41.428Z,102030.47
2022-10-06T06:26:11.258Z,102031.22
2022-10-06T06:28:41.460Z,102041.63
2022-10-06T06:31:12.506Z,102042.19
2022-10-06T06:33:43.105Z,102045.66
2022-10-06T06:36:14.490Z,102053.25
2022-10-06T06:38:42.551Z,102052.16
2022-10-06T06:41:17.782Z,102064.97
2022-10-06T06:43:47.997Z,102069.44
2022-10-06T06:46:16.832Z,102079.88
2022-10-06T06:48:45.407Z,102078.56
2022-10-06T06:51:13.341Z,102092.16
2022-10-06T06:53:41.527Z,102090.84
2022-10-06T06:56:10.562Z,102089.97
2022-10-06T06:58:39.114Z,102099.97
2022-10-06T07:01:13.817Z,102099.50
2022-10-06T07:03:58.579Z,102104.59
2022-10-06T07:06:28.719Z,102115.59
2022-10-06T07:08:57.724Z,102116.22
2022-10-06T07:11:27.095Z,102115.03
2022-10-06T07:13:57.690Z,102123.06
2022-10-06T07:16:44.644Z,102137.06
2022-10-06T07:19:30.393Z,102136.94
2022-10-06T07:22:17.264Z,102146.63
2022-10-06T07:25:03.466Z,102145.41
2022-10-06T07:27:32.772Z,102154.09
2022-10-06T07:30:00.788Z,102164.00
2022-10-06T07:32:31.382Z,102157.47
2022-10-06T07:34:59.472Z,102161.88
2022-10-06T07:37:28.870Z,102169.94
2022-10-06T07:39:56.777Z,102184.72
2022-10-06T07:42:24.652Z,102180.38
2022-10-06T07:45:06.501Z,102185.56
2022-10-06T07:47:38.282Z,102194.03
2022-10-06T07:50:07.174Z,102206.44
2022-10-06T07:52:39.212Z,102205.53
2022-10-06T07:55:08.186Z,102196.75
2022-10-06T07:57:36.083Z,102212.50
2022-10-06T08:00:07.455Z,102207.63
2022-10-06T08:02:36.887Z,102211.50
2022-10-06T08:05:05.258Z,102226.91
2022-10-06T08:07:33.168Z,102223.19
2022-10-06T08:10:01.227Z,102235.38
2022-10-06T08:12:37.367Z,102235.09
2022-10-06T08:15:07.579Z,102234.81
2022-10-06T08:17:37.550Z,102243.22
2022-10-06T08:20:06.834Z,102244.94
2022-10-06T08:22:36.297Z,102244.59
2022-10-06T08:25:06.588Z,102257.75
2022-10-06T08:27:35.681Z,102258.16
2022-10-06T08:30:03.957Z,102255.44
2022-10-06T08:32:32.177Z,102272.66
2022-10-06T08:35:01.608Z,102270.44
2022-10-06T08:37:29.526Z,102274.31
2022-10-06T08:39:57.899Z,102275.84
2022-10-06T08:42:33.992Z,102279.41
2022-10-06T08:45:05.105Z,102283.28
2022-10-06T08:47:36.379Z,102291.09
2022-10-06T08:50:09.978Z,102294.81
2022-10-06T08:52:47.954Z,102291.00
2022-10-06T08:55:32.416Z,102308.28
2022-10-06T08:58:08.146Z,102311.28
2022-10-06T09:00:36.925Z,102312.66
2022-10-06T09:03:05.806Z,102309.31
2022-10-06T09:05:35.301Z,102323.06
2022-10-06T09:08:17.455Z,102323.56
2022-10-06T09:10:49.765Z,102327.06
2022-10-06T09:13:22.108Z,102325.91
2022-10-06T09:15:51.901Z,102343.91
2022-10-06T09:18:23.563Z,102339.59
2022-10-06T09:20:55.150Z,102344.75
2022-10-06T09:23:43.956Z,102343.03
2022-10-06T09:26:13.756Z,102344.03
2022-10-06T09:28:42.306Z,102351.59
2022-10-06T09:31:21.890Z,102357.19
2022-10-06T09:33:53.180Z,102362.50
2022-10-06T09:36:24.230Z,102361.16
2022-10-06T09:38:54.362Z,102357.94
2022-10-06T09:41:26.375Z,102368.09
2022-10-06T09:43:57.793Z,102364.38
2022-10-06T09:46:32.451Z,102369.22
2022-10-06T09:49:17.989Z,102361.63
2022-10-06T09:52:03.198Z,102363.38
2022-10-06T09:54:31.673Z,102375.41
2022-10-06T09:57:00.105Z,102381.75
2022-10-06T09:59:39.067Z,102371.72
2022-10-06T10:02:24.864Z,102391.44
2022-10-06T10:04:55.244Z,102400.47
2022-10-06T10:07:26.133Z,102405.22
2022-10-06T10:09:54.955Z,102400.09
2022-10-06T10:12:27.836Z,102401.66
2022-10-06T10:14:58.202Z,102412.88
2022-10-06T10:17:36.342Z,102409.03
2022-10-06T10:20:08.358Z,102415.97
2022-10-06T10:22:39.204Z,102415.50
2022-10-06T10:25:14.497Z,102417.84
2022-10-06T10:27:49.510Z,102428.28
2022-10-06T10:30:17.534Z,102418.00
2022-10-06T10:32:51.867Z,102418.66
2022-10-06T10:35:24.782Z,102424.34
2022-10-06T10:37:58.946Z,102428.22
2022-10-06T10:40:31.414Z,102427.47
2022-10-06T10:43:22.357Z,102424.09
2022-10-06T10:45:52.853Z,102437.44
2022-10-06T10:48:25.485Z,102428.84
2022-10-06T10:51:00.263Z,102435.75
2022-10-06T10:53:35.649Z,102435.47
2022-10-06T10:56:08.989Z,102438.72
2022-10-06T10:58:37.954Z,102436.81
2022-10-06T11:01:13.297Z,102439.78
2022-10-06T11:03:41.277Z,102438.56
2022-10-06T11:06:33.482Z,102437.25
2022-10-06T11:09:04.845Z,102439.44
2022-10-06T11:11:43.540Z,102446.38
2022-10-06T11:14:21.263Z,102447.25
2022-10-06T11:16:52.857Z,102446.03
2022-10-06T11:19:27.585Z,102443.97
2022-10-06T11:21:59.749Z,102445.31
2022-10-06T11:24:34.165Z,102458.56
2022-10-06T11:27:13.386Z,102456.78
2022-10-06T11:29:51.611Z,102462.03
2022-10-06T11:32:26.570Z,102452.53
2022-10-06T11:34:54.917Z,102462.09
2022-10-06T11:37:32.995Z,102464.28
2022-10-06T11:40:17.855Z,102474.38
2022-10-06T11:42:49.436Z,102477.09
2022-10-06T11:45:19.707Z,102468.66
2022-10-06T11:48:01.179Z,102466.91
2022-10-06T11:50:36.609Z,102467.94
2022-10-06T11:53:05.675Z,102478.56
2022-10-06T11:55:34.946Z,102472.38
2022-10-06T12:01:02.193Z,102478.81
2022-10-06T12:03:50.674Z,102470.47
2022-10-06T12:07:03.371Z,102476.03
2022-10-06T12:09:53.547Z,102477.59
2022-10-06T12:12:45.901Z,102475.16
2022-10-06T12:18:28.945Z,102470.19
2022-10-06T12:21:06.518Z,102473.56
2022-10-06T12:23:44.093Z,102475.84
2022-10-06T12:26:21.912Z,102471.53
2022-10-06T12:28:55.704Z,102468.28
2022-10-06T12:31:39.956Z,102469.06
2022-10-06T12:34:41.052Z,102467.47
2022-10-06T12:37:23.042Z,102478.81
2022-10-06T12:39:50.986Z,102471.69
2022-10-06T12:42:21.032Z,102481.91
2022-10-06T12:44:51.707Z,102478.53
2022-10-06T12:47:22.983Z,102475.56
2022-10-06T12:49:53.946Z,102477.28
2022-10-06T12:52:35.333Z,102477.91
2022-10-06T12:55:22.387Z,102474.97
2022-10-06T12:57:53.441Z,102477.44
2022-10-06T13:00:33.196Z,102475.56
2022-10-06T13:03:03.311Z,102486.75
2022-10-06T13:05:31.568Z,102477.28
2022-10-06T13:08:01.062Z,102479.44
2022-10-06T13:10:30.494Z,102476.22
2022-10-06T13:12:59.091Z,102485.41
2022-10-06T13:18:11.698Z,102479.97
2022-10-06T13:20:41.795Z,102485.19
2022-10-06T13:23:22.910Z,102476.47
2022-10-06T13:25:53.922Z,102487.31
2022-10-06T13:28:27.403Z,102483.88
2022-10-06T13:30:58.446Z,102475.16
2022-10-06T13:33:29.749Z,102480.41
2022-10-06T13:35:59.223Z,102472.44
2022-10-06T13:38:31.762Z,102472.59
2022-10-06T13:41:19.413Z,102479.88
2022-10-06T13:43:49.876Z,102474.38
2022-10-06T13:46:21.896Z,102479.44
2022-10-06T13:48:52.705Z,102474.88
2022-10-06T13:51:23.170Z,102480.81
2022-10-06T13:53:52.021Z,102486.81
2022-10-06T13:56:35.691Z,102479.13
2022-10-06T13:59:32.408Z,102477.44
2022-10-06T14:02:04.428Z,102478.03
2022-10-06T14:04:34.729Z,102489.53
2022-10-06T14:07:05.617Z,102498.66
2022-10-06T14:09:34.528Z,102498.34
2022-10-06T14:12:04.850Z,102501.63
2022-10-06T14:14:32.981Z,102499.00
2022-10-06T14:17:02.454Z,102489.31
2022-10-06T14:19:34.077Z,102498.09
2022-10-06T14:22:02.418Z,102494.16
2022-10-06T14:24:34.054Z,102501.25
2022-10-06T14:27:03.942Z,102490.09
2022-10-06T14:29:34.204Z,102482.25
2022-10-06T14:32:11.172Z,102488.44
2022-10-06T14:34:40.624Z,102493.69
2022-10-06T14:37:15.282Z,102494.56
2022-10-06T14:39:43.734Z,102498.69
2022-10-06T14:42:12.206Z,102506.34
2022-10-06T14:44:40.274Z,102508.00
2022-10-06T14:47:10.478Z,102502.19
2022-10-06T14:49:38.601Z,102509.94
2022-10-06T14:52:09.130Z,102509.22
2022-10-06T14:54:37.763Z,102508.88
2022-10-06T14:57:05.712Z,102498.47
2022-10-06T14:59:33.651Z,102505.09
2022-10-06T15:02:01.535Z,102499.63
2022-10-06T15:04:31.437Z,102510.38
2022-10-06T15:07:16.839Z,102497.56
2022-10-06T15:09:44.713Z,102492.81
2022-10-06T15:12:12.592Z,102493.53
2022-10-06T15:14:40.493Z,102499.97
2022-10-06T15:17:08.636Z,102492.19
2022-10-06T15:19:37.946Z,102505.88
2022-10-06T15:22:06.346Z,102503.78
2022-10-06T15:24:34.281Z,102508.72
2022-10-06T15:27:24.575Z,102501.75
2022-10-06T15:29:52.912Z,102505.31
2022-10-06T15:32:20.800Z,102504.69
2022-10-06T15:34:51.953Z,102500.22
2022-10-06T15:37:20.334Z,102504.78
2022-10-06T15:39:48.217Z,102513.84
2022-10-06T15:42:18.790Z,102512.03
2022-10-06T15:44:46.879Z,102517.00
2022-10-06T15:47:14.849Z,102521.88
2022-10-06T15:49:42.759Z,102516.56
2022-10-06T15:52:14.021Z,102514.63
2022-10-06T15:54:42.250Z,102508.63
2022-10-06T15:57:14.968Z,102521.28
2022-10-06T15:59:45.962Z,102513.09
2022-10-06T16:02:16.230Z,102518.88
2022-10-06T16:04:56.834Z,102509.06
2022-10-06T16:07:26.154Z,102524.25
2022-10-06T16:09:54.206Z,102520.13
2022-10-06T16:12:24.856Z,102524.72
2022-10-06T16:14:53.169Z,102528.53
2022-10-06T16:17:21.058Z,102534.03
2022-10-06T16:19:49.747Z,102524.81
2022-10-06T16:22:19.394Z,102529.56
2022-10-06T16:24:48.716Z,102533.31
2022-10-06T16:27:16.941Z,102521.53
2022-10-06T16:29:44.952Z,102535.09
2022-10-06T16:32:12.898Z,102533.03
2022-10-06T16:34:40.784Z,102533.59
2022-10-06T16:37:08.693Z,102543.53
2022-10-06T16:39:36.573Z,102542.09
2022-10-06T16:42:06.086Z,102542.47
2022-10-06T16:44:34.053Z,102544.44
2022-10-06T16:47:02.014Z,102533.50
2022-10-06T16:49:29.959Z,102541.09
2022-10-06T16:51:57.881Z,102545.72
2022-10-06T16:54:25.762Z,102545.78
2022-10-06T16:56:54.390Z,102549.81
2022-10-06T16:59:26.067Z,102554.59
2022-10-06T17:01:54.040Z,102556.94
2022-10-06T17:04:23.152Z,102559.78
2022-10-06T17:06:52.881Z,102556.00
2022-10-06T17:09:22.494Z,102560.22
2022-10-06T17:11:51.869Z,102569.16
2022-10-06T17:14:21.244Z,102571.72
2022-10-06T17:16:53.878Z,102557.94
2022-10-06T17:19:24.199Z,102554.78
2022-10-06T17:21:58.266Z,102545.91
2022-10-06T17:24:28.498Z,102564.69
2022-10-06T17:26:57.838Z,102563.06
2022-10-06T17:29:26.443Z,102568.69
2022-10-06T17:31:59.009Z,102555.94
2022-10-06T17:34:32.291Z,102561.88
2022-10-06T17:37:01.930Z,102566.78
2022-10-06T17:39:30.009Z,102558.59
2022-10-06T17:41:57.915Z,102569.59
2022-10-06T17:44:26.960Z,102558.72
2022-10-06T17:46:57.179Z,102564.03
2022-10-06T17:49:25.908Z,102569.25
2022-10-06T17:51:55.124Z,102560.56
2022-10-06T17:54:24.265Z,102564.09
2022-10-06T17:56:54.247Z,102572.53
2022-10-06T17:59:23.490Z,102571.25
2022-10-06T18:01:52.281Z,102567.88
2022-10-06T18:04:21.749Z,102572.69
2022-10-06T18:06:49.791Z,102570.69
2022-10-06T18:09:18.398Z,102575.28
2022-10-06T18:11:48.357Z,102564.59
2022-10-06T18:14:18.324Z,102563.97
2022-10-06T18:16:52.114Z,102567.44
2022-10-06T18:19:26.620Z,102569.72
2022-10-06T18:21:56.612Z,102571.63
2022-10-06T18:24:26.281Z,102571.00
2022-10-06T18:26:56.200Z,102561.56
2022-10-06T18:29:28.056Z,102560.84
2022-10-06T18:32:01.544Z,102571.16
2022-10-06T18:37:32.606Z,102563.56
2022-10-06T18:40:02.415Z,102566.50
2022-10-06T18:42:30.337Z,102572.94
2022-10-06T18:45:15.493Z,102561.22
2022-10-06T18:48:00.918Z,102564.16
2022-10-06T18:50:31.050Z,102566.59
2022-10-06T18:52:59.029Z,102558.50
2022-10-06T18:55:29.675Z,102558.66
2022-10-06T18:57:57.861Z,102558.16
2022-10-06T19:00:26.048Z,102562.63
2022-10-06T19:02:55.545Z,102561.53
2022-10-06T19:05:23.714Z,102567.19
2022-10-06T19:07:55.051Z,102571.53
2022-10-06T19:10:22.999Z,102573.72
2022-10-06T19:12:50.957Z,102574.59
2022-10-06T19:15:21.006Z,102574.81
2022-10-06T19:17:49.609Z,102573.41
2022-10-06T19:20:18.474Z,102578.44
2022-10-06T19:22:47.703Z,102575.84
2022-10-06T19:25:19.314Z,102578.75
2022-10-06T19:27:47.422Z,102577.16
2022-10-06T19:30:15.918Z,102574.56
2022-10-06T19:32:43.951Z,102581.00
2022-10-06T19:35:11.857Z,102576.72
2022-10-06T19:37:40.701Z,102580.41
2022-10-06T19:40:11.398Z,102582.91
2022-10-06T19:42:49.109Z,102588.78
2022-10-06T19:45:18.517Z,102584.97
2022-10-06T19:47:47.226Z,102591.63
2022-10-06T19:50:16.294Z,102586.16
2022-10-06T19:52:44.241Z,102583.66
2022-10-06T19:55:12.130Z,102580.69
2022-10-06T19:57:43.202Z,102578.53
2022-10-06T20:00:12.585Z,102583.78
2022-10-06T20:02:42.751Z,102580.03
2022-10-06T20:05:12.477Z,102584.03
2022-10-06T20:07:40.678Z,102581.31
2022-10-06T20:10:09.078Z,102584.69
2022-10-06T20:12:38.353Z,102589.41
2022-10-06T20:15:08.546Z,102577.22
2022-10-06T20:17:36.433Z,102587.41
2022-10-06T20:20:04.489Z,102585.25
2022-10-06T20:22:32.709Z,102585.25
2022-10-06T20:25:01.953Z,102585.63
2022-10-06T20:27:29.995Z,102587.91
2022-10-06T20:29:58.299Z,102579.25
2022-10-06T20:32:27.778Z,102589.75
2022-10-06T20:34:55.693Z,102573.38
2022-10-06T20:37:23.652Z,102587.91
2022-10-06T20:40:08.810Z,102587.94
2022-10-06T20:42:36.720Z,102588.44
2022-10-06T20:45:05.031Z,102579.50
2022-10-06T20:47:34.308Z,102594.22
2022-10-06T20:50:02.188Z,102590.34
2022-10-06T20:52:31.649Z,102588.31
2022-10-06T20:54:59.561Z,102594.31
2022-10-06T20:57:33.497Z,102592.28
2022-10-06T21:00:01.736Z,102585.41
2022-10-06T21:02:30.563Z,102585.50
2022-10-06T21:05:01.538Z,102579.53
2022-10-06T21:07:29.427Z,102583.75
2022-10-06T21:09:57.313Z,102575.09
2022-10-06T21:12:25.308Z,102578.09
2022-10-06T21:14:53.210Z,102581.97
2022-10-06T21:17:21.143Z,102576.19
2022-10-06T21:19:49.058Z,102578.00
2022-10-06T21:22:18.415Z,102574.41
2022-10-06T21:24:46.337Z,102568.91
2022-10-06T21:27:14.205Z,102570.44
2022-10-06T21:29:42.690Z,102566.00
2022-10-06T21:32:10.683Z,102567.06
2022-10-06T21:34:40.164Z,102564.03
2022-10-06T21:37:08.059Z,102562.59
2022-10-06T21:39:37.576Z,102571.13
2022-10-06T21:42:05.544Z,102564.78
2022-10-06T21:44:33.460Z,102563.94
2022-10-06T21:47:02.687Z,102566.16
2022-10-06T21:49:30.747Z,102563.72
2022-10-06T21:52:03.581Z,102550.34
2022-10-06T21:54:31.771Z,102556.28
2022-10-06T21:57:01.032Z,102552.19
2022-10-06T21:59:28.920Z,102546.28
2022-10-06T22:01:57.012Z,102546.28
2022-10-06T22:04:25.046Z,102547.16
2022-10-06T22:06:52.932Z,102546.16
2022-10-06T22:09:21.277Z,102535.91
2022-10-06T22:11:49.235Z,102533.19
2022-10-06T22:14:20.225Z,102536.31
2022-10-06T22:16:48.230Z,102546.00
2022-10-06T22:19:16.331Z,102548.06
2022-10-06T22:21:45.992Z,102536.09
2022-10-06T22:24:15.316Z,102545.88
2022-10-06T22:26:43.769Z,102536.78
2022-10-06T22:29:13.283Z,102534.44
2022-10-06T22:31:43.881Z,102530.56
2022-10-06T22:34:12.918Z,102533.97
2022-10-06T22:36:41.024Z,102528.59
2022-10-06T22:39:09.006Z,102526.84
2022-10-06T22:41:36.931Z,102529.50
2022-10-06T22:44:04.946Z,102524.78
2022-10-06T22:46:34.077Z,102527.03
2022-10-06T22:49:04.033Z,102523.06
2022-10-06T22:51:32.384Z,102526.84
2022-10-06T22:54:01.139Z,102520.88
2022-10-06T22:56:31.515Z,102513.41
2022-10-06T22:59:00.333Z,102511.25
2022-10-06T23:01:29.602Z,102513.03
2022-10-06T23:03:58.137Z,102507.16
2022-10-06T23:06:29.725Z,102496.09
2022-10-06T23:08:57.902Z,102497.25
2022-10-06T23:11:25.990Z,102498.63
2022-10-06T23:13:53.910Z,102499.50
2022-10-06T23:16:22.751Z,102498.91
2022-10-06T23:18:50.796Z,102495.59
2022-10-06T23:21:21.798Z,102498.63
2022-10-06T23:23:53.436Z,102493.91
2022-10-06T23:26:21.746Z,102491.66
2022-10-06T23:28:53.493Z,102481.59
2022-10-06T23:31:21.417Z,102483.53
2022-10-06T23:33:49.505Z,102480.41
2022-10-06T23:36:17.790Z,102484.47
2022-10-06T23:38:45.904Z,102480.53
2022-10-06T23:41:15.808Z,102477.22
2022-10-06T23:43:43.924Z,102478.47
2022-10-06T23:46:12.191Z,102472.75
2022-10-06T23:48:40.328Z,102468.81
2022-10-06T23:51:09.658Z,102460.31
2022-10-06T23:53:37.617Z,102467.63
2022-10-06T23:56:06.216Z,102460.09
2022-10-06T23:58:35.893Z,102463.75
